Time,TemperatureF,DewpointF,PressureIn,WindDirection,WindDirectionDegrees,WindSpeedMPH,WindSpeedGustMPH,Humidity,HourlyPrecipIn,Conditions,Clouds,dailyrainin,SoftwareType,DateUTC
2013-02-17 00:05:00,2.2,-3.1,30.14,North,-999,0.0,1.0,78,0.00,,,-99.99,WeatherLink 5.7,2013-02-17 06:05:00,
2013-02-17 00:34:00,1.4,-3.9,30.14,ENE,67,0.0,2.0,78,0.00,,,-99.99,WeatherLink 5.7,2013-02-17 06:34:00,
2013-02-17 01:04:00,0.8,-4.2,30.14,ENE,67,0.0,1.0,79,0.00,,,-99.99,WeatherLink 5.7,2013-02-17 07:04:00,
2013-02-17 01:35:00,1.2,-2.5,30.14,ENE,67,0.0,3.0,84,0.00,,,-99.99,WeatherLink 5.7,2013-02-17 07:35:00,
2013-02-17 02:04:00,4.3,1.0,30.13,ENE,67,1.0,3.0,86,0.00,,,-99.99,WeatherLink 5.7,2013-02-17 08:04:00,
2013-02-17 02:34:00,6.8,2.7,30.14,ENE,67,1.0,3.0,83,0.00,,,-99.99,WeatherLink 5.7,2013-02-17 08:34:00,
2013-02-17 03:04:00,8.3,3.7,30.13,ENE,67,1.0,3.0,81,0.00,,,-99.99,WeatherLink 5.7,2013-02-17 09:04:00,
2013-02-17 03:34:00,9.0,3.8,30.11,ENE,67,1.0,3.0,79,0.00,,,-99.99,WeatherLink 5.7,2013-02-17 09:34:00,
2013-02-17 04:04:00,9.3,3.8,30.10,ENE,67,2.0,4.0,78,0.00,,,-99.99,WeatherLink 5.7,2013-02-17 10:04:00,
2013-02-17 04:35:00,10.2,4.7,30.09,ESE,112,2.0,4.0,78,0.00,,,-99.99,WeatherLink 5.7,2013-02-17 10:35:00,
2013-02-17 05:04:00,11.0,5.5,30.09,ESE,112,2.0,5.0,78,0.00,,,-99.99,WeatherLink 5.7,2013-02-17 11:04:00,
2013-02-17 05:35:00,11.3,5.5,30.08,ESE,112,2.0,4.0,77,0.00,,,-99.99,WeatherLink 5.7,2013-02-17 11:35:00,
2013-02-17 06:04:00,10.7,4.9,30.07,ESE,112,2.0,5.0,77,0.00,,,-99.99,WeatherLink 5.7,2013-02-17 12:04:00,
2013-02-17 06:35:00,10.3,4.8,30.06,ESE,112,2.0,4.0,78,0.00,,,-99.99,WeatherLink 5.7,2013-02-17 12:35:00,
2013-02-17 07:04:00,10.1,4.9,30.05,ESE,112,1.0,4.0,79,0.00,,,-99.99,WeatherLink 5.7,2013-02-17 13:04:00,
2013-02-17 07:34:00,10.2,5.3,30.03,ESE,112,2.0,4.0,80,0.00,,,-99.99,WeatherLink 5.7,2013-02-17 13:34:00,
2013-02-17 08:04:00,10.5,5.8,30.03,ESE,112,1.0,4.0,81,0.00,,,-99.99,WeatherLink 5.7,2013-02-17 14:04:00,
2013-02-17 08:35:00,11.5,6.5,30.02,SE,135,2.0,5.0,80,0.00,,,-99.99,WeatherLink 5.7,2013-02-17 14:35:00,
2013-02-17 09:04:00,13.0,7.7,30.02,ESE,112,2.0,6.0,79,0.00,,,-99.99,WeatherLink 5.7,2013-02-17 15:04:00,
2013-02-17 09:34:00,14.7,9.4,30.00,East,90,3.0,6.0,79,0.00,,,-99.99,WeatherLink 5.7,2013-02-17 15:34:00,
2013-02-17 10:04:00,17.0,11.0,30.00,ESE,112,2.0,5.0,77,0.00,,,-99.99,WeatherLink 5.7,2013-02-17 16:04:00,
2013-02-17 10:35:00,19.0,12.7,29.99,ESE,112,3.0,6.0,76,0.00,,,-99.99,WeatherLink 5.7,2013-02-17 16:35:00,
2013-02-17 11:04:00,20.8,14.1,29.98,ESE,112,3.0,7.0,75,0.00,,,-99.99,WeatherLink 5.7,2013-02-17 17:04:00,
2013-02-17 11:35:00,22.7,15.3,29.98,ESE,112,3.0,7.0,73,0.00,,,-99.99,WeatherLink 5.7,2013-02-17 17:35:00,
2013-02-17 12:05:00,24.4,16.3,29.96,ESE,112,3.0,6.0,71,0.00,,,-99.99,WeatherLink 5.7,2013-02-17 18:05:00,
2013-02-17 12:35:00,25.9,17.5,29.93,ESE,112,3.0,8.0,70,0.00,,,-99.99,WeatherLink 5.7,2013-02-17 18:35:00,
2013-02-17 13:05:00,27.0,18.5,29.92,ESE,112,4.0,8.0,70,0.00,,,-99.99,WeatherLink 5.7,2013-02-17 19:05:00,
2013-02-17 13:34:00,28.0,19.1,29.89,SE,135,4.0,7.0,69,0.00,,,-99.99,WeatherLink 5.7,2013-02-17 19:34:00,
2013-02-17 14:04:00,29.0,19.8,29.88,SE,135,4.0,9.0,68,0.00,,,-99.99,WeatherLink 5.7,2013-02-17 20:04:00,
2013-02-17 14:34:00,29.4,20.8,29.86,ESE,112,4.0,9.0,70,0.00,,,-99.99,WeatherLink 5.7,2013-02-17 20:34:00,
2013-02-17 15:05:00,29.7,20.8,29.85,ESE,112,4.0,9.0,69,0.00,,,-99.99,WeatherLink 5.7,2013-02-17 21:05:00,
2013-02-17 15:35:00,29.8,21.2,29.84,SE,135,4.0,9.0,70,0.00,,,-99.99,WeatherLink 5.7,2013-02-17 21:35:00,
2013-02-17 16:04:00,29.6,21.3,29.82,SE,135,4.0,8.0,71,0.00,,,-99.99,WeatherLink 5.7,2013-02-17 22:04:00,
2013-02-17 16:35:00,29.4,21.2,29.80,SE,135,4.0,8.0,71,0.00,,,-99.99,WeatherLink 5.7,2013-02-17 22:35:00,
2013-02-17 17:00:00,29.0,21.1,29.79,SE,135,4.0,7.0,72,0.00,,,-99.99,WeatherLink 5.7,2013-02-17 23:00:00,
2013-02-17 17:05:00,29.0,21.1,29.79,SE,135,4.0,7.0,72,0.00,,,-99.99,WeatherLink 5.7,2013-02-17 23:05:00,
2013-02-17 17:30:00,28.4,20.8,29.77,ESE,112,3.0,7.0,73,0.00,,,-99.99,WeatherLink 5.7,2013-02-17 23:30:00,
2013-02-17 18:00:00,27.9,20.7,29.78,ESE,112,3.0,9.0,74,0.00,,,-99.99,WeatherLink 5.7,2013-02-18 00:00:00,
2013-02-17 18:36:00,27.5,20.6,29.76,ESE,112,3.0,7.0,75,0.00,,,-99.99,WeatherLink 5.7,2013-02-18 00:36:00,
2013-02-17 19:05:00,27.2,20.6,29.76,SE,135,4.0,8.0,76,0.00,,,-99.99,WeatherLink 5.7,2013-02-18 01:05:00,
2013-02-17 19:34:00,27.0,20.4,29.76,SE,135,4.0,8.0,76,0.00,,,-99.99,WeatherLink 5.7,2013-02-18 01:34:00,
2013-02-17 20:05:00,26.9,20.7,29.76,SE,135,4.0,8.0,77,0.00,,,-99.99,WeatherLink 5.7,2013-02-18 02:05:00,
2013-02-17 20:35:00,26.8,20.6,29.75,ESE,112,3.0,9.0,77,0.00,,,-99.99,WeatherLink 5.7,2013-02-18 02:35:00,
2013-02-17 21:04:00,26.8,20.9,29.74,ESE,112,3.0,7.0,78,0.00,,,-99.99,WeatherLink 5.7,2013-02-18 03:04:00,
2013-02-17 21:35:00,26.7,20.8,29.73,ESE,112,4.0,8.0,78,0.00,,,-99.99,WeatherLink 5.7,2013-02-18 03:35:00,
2013-02-17 22:05:00,26.4,20.5,29.72,SE,135,4.0,8.0,78,0.00,,,-99.99,WeatherLink 5.7,2013-02-18 04:05:00,
2013-02-17 22:35:00,26.4,20.8,29.71,SE,135,4.0,8.0,79,0.00,,,-99.99,WeatherLink 5.7,2013-02-18 04:35:00,
2013-02-17 23:05:00,26.5,20.9,29.70,SE,135,3.0,7.0,79,0.00,,,-99.99,WeatherLink 5.7,2013-02-18 05:05:00,
2013-02-17 23:35:00,26.5,21.2,29.68,SE,135,3.0,6.0,80,0.00,,,-99.99,WeatherLink 5.7,2013-02-18 05:35:00,